sensor_id;sensor_type;location;lat;lon;timestamp;P1;durP1;ratioP1;P2;durP2;ratioP2
65751;SDS011;52486;51.098;13.770;2023-03-04T00:01:14;3.17;;;2.38;;
65751;SDS011;52486;51.098;13.770;2023-03-04T00:03:40;2.65;;;2.40;;
65751;SDS011;52486;51.098;13.770;2023-03-04T00:06:06;2.63;;;2.40;;
65751;SDS011;52486;51.098;13.770;2023-03-04T00:08:33;2.63;;;2.35;;
65751;SDS011;52486;51.098;13.770;2023-03-04T00:10:59;2.53;;;2.33;;
65751;SDS011;52486;51.098;13.770;2023-03-04T00:13:25;3.05;;;2.67;;
65751;SDS011;52486;51.098;13.770;2023-03-04T00:15:51;2.80;;;2.20;;
65751;SDS011;52486;51.098;13.770;2023-03-04T00:18:18;2.47;;;2.28;;
65751;SDS011;52486;51.098;13.770;2023-03-04T00:20:45;2.60;;;2.25;;
65751;SDS011;52486;51.098;13.770;2023-03-04T00:23:11;2.78;;;2.42;;
65751;SDS011;52486;51.098;13.770;2023-03-04T00:25:37;3.22;;;2.22;;
65751;SDS011;52486;51.098;13.770;2023-03-04T00:28:03;3.10;;;2.53;;
65751;SDS011;52486;51.098;13.770;2023-03-04T00:30:30;3.95;;;2.28;;
65751;SDS011;52486;51.098;13.770;2023-03-04T00:32:56;3.22;;;2.78;;
65751;SDS011;52486;51.098;13.770;2023-03-04T00:35:22;2.50;;;2.30;;
65751;SDS011;52486;51.098;13.770;2023-03-04T00:37:48;3.22;;;2.50;;
65751;SDS011;52486;51.098;13.770;2023-03-04T00:40:14;2.40;;;2.08;;
65751;SDS011;52486;51.098;13.770;2023-03-04T00:42:40;2.67;;;2.40;;
65751;SDS011;52486;51.098;13.770;2023-03-04T00:45:07;2.42;;;2.22;;
65751;SDS011;52486;51.098;13.770;2023-03-04T00:47:33;3.55;;;2.22;;
65751;SDS011;52486;51.098;13.770;2023-03-04T00:49:59;3.45;;;2.50;;
65751;SDS011;52486;51.098;13.770;2023-03-04T00:52:25;2.75;;;2.13;;
65751;SDS011;52486;51.098;13.770;2023-03-04T00:54:52;2.53;;;2.28;;
65751;SDS011;52486;51.098;13.770;2023-03-04T00:57:18;3.72;;;2.20;;
65751;SDS011;52486;51.098;13.770;2023-03-04T00:59:44;2.25;;;2.05;;
65751;SDS011;52486;51.098;13.770;2023-03-04T01:02:10;2.88;;;2.25;;
65751;SDS011;52486;51.098;13.770;2023-03-04T01:04:37;3.75;;;2.30;;
65751;SDS011;52486;51.098;13.770;2023-03-04T01:07:03;3.03;;;2.53;;
65751;SDS011;52486;51.098;13.770;2023-03-04T01:09:29;2.80;;;2.40;;
65751;SDS011;52486;51.098;13.770;2023-03-04T01:11:55;2.83;;;2.22;;
65751;SDS011;52486;51.098;13.770;2023-03-04T01:14:22;2.28;;;2.08;;
65751;SDS011;52486;51.098;13.770;2023-03-04T01:16:48;2.40;;;2.20;;
65751;SDS011;52486;51.098;13.770;2023-03-04T01:19:14;2.88;;;2.20;;
65751;SDS011;52486;51.098;13.770;2023-03-04T01:21:40;2.50;;;2.30;;
65751;SDS011;52486;51.098;13.770;2023-03-04T01:24:06;2.58;;;2.20;;
65751;SDS011;52486;51.098;13.770;2023-03-04T01:26:32;2.30;;;2.10;;
65751;SDS011;52486;51.098;13.770;2023-03-04T01:28:59;3.03;;;2.70;;
65751;SDS011;52486;51.098;13.770;2023-03-04T01:31:25;2.20;;;2.00;;
65751;SDS011;52486;51.098;13.770;2023-03-04T01:33:51;2.33;;;2.13;;
65751;SDS011;52486;51.098;13.770;2023-03-04T01:36:17;2.55;;;2.35;;
65751;SDS011;52486;51.098;13.770;2023-03-04T01:38:43;2.47;;;2.28;;
65751;SDS011;52486;51.098;13.770;2023-03-04T01:41:10;2.22;;;2.03;;
65751;SDS011;52486;51.098;13.770;2023-03-04T01:43:37;2.20;;;2.00;;
65751;SDS011;52486;51.098;13.770;2023-03-04T01:46:03;2.53;;;2.28;;
65751;SDS011;52486;51.098;13.770;2023-03-04T01:48:31;2.30;;;2.00;;
65751;SDS011;52486;51.098;13.770;2023-03-04T01:51:00;2.80;;;2.20;;
65751;SDS011;52486;51.098;13.770;2023-03-04T01:53:29;2.80;;;2.40;;
65751;SDS011;52486;51.098;13.770;2023-03-04T01:55:56;2.58;;;2.38;;
65751;SDS011;52486;51.098;13.770;2023-03-04T01:58:25;2.72;;;2.10;;
65751;SDS011;52486;51.098;13.770;2023-03-04T02:00:53;3.08;;;2.28;;
65751;SDS011;52486;51.098;13.770;2023-03-04T02:03:19;2.40;;;2.20;;
65751;SDS011;52486;51.098;13.770;2023-03-04T02:05:46;2.40;;;2.20;;
65751;SDS011;52486;51.098;13.770;2023-03-04T02:08:12;2.85;;;2.42;;
65751;SDS011;52486;51.098;13.770;2023-03-04T02:10:40;2.92;;;2.40;;
65751;SDS011;52486;51.098;13.770;2023-03-04T02:13:06;2.63;;;2.22;;
65751;SDS011;52486;51.098;13.770;2023-03-04T02:15:33;2.28;;;2.08;;
65751;SDS011;52486;51.098;13.770;2023-03-04T02:17:59;2.33;;;2.10;;
65751;SDS011;52486;51.098;13.770;2023-03-04T02:23:14;2.30;;;2.00;;
65751;SDS011;52486;51.098;13.770;2023-03-04T02:25:46;2.10;;;1.90;;
65751;SDS011;52486;51.098;13.770;2023-03-04T02:28:13;2.30;;;2.10;;
65751;SDS011;52486;51.098;13.770;2023-03-04T02:30:40;2.60;;;2.40;;
65751;SDS011;52486;51.098;13.770;2023-03-04T02:33:08;2.58;;;2.10;;
65751;SDS011;52486;51.098;13.770;2023-03-04T02:35:35;2.45;;;2.10;;
65751;SDS011;52486;51.098;13.770;2023-03-04T02:38:01;2.20;;;2.00;;
65751;SDS011;52486;51.098;13.770;2023-03-04T02:40:28;2.42;;;2.10;;
65751;SDS011;52486;51.098;13.770;2023-03-04T02:42:56;1.90;;;1.70;;
65751;SDS011;52486;51.098;13.770;2023-03-04T02:45:42;2.05;;;1.85;;
65751;SDS011;52486;51.098;13.770;2023-03-04T02:48:09;1.92;;;1.70;;
65751;SDS011;52486;51.098;13.770;2023-03-04T02:50:37;2.40;;;2.20;;
65751;SDS011;52486;51.098;13.770;2023-03-04T02:53:04;2.45;;;2.13;;
65751;SDS011;52486;51.098;13.770;2023-03-04T02:55:30;2.50;;;2.30;;
65751;SDS011;52486;51.098;13.770;2023-03-04T02:57:56;2.53;;;2.13;;
65751;SDS011;52486;51.098;13.770;2023-03-04T03:00:22;2.80;;;2.50;;
65751;SDS011;52486;51.098;13.770;2023-03-04T03:02:49;2.53;;;2.00;;
65751;SDS011;52486;51.098;13.770;2023-03-04T03:05:15;2.05;;;1.85;;
65751;SDS011;52486;51.098;13.770;2023-03-04T03:07:41;2.30;;;2.05;;
65751;SDS011;52486;51.098;13.770;2023-03-04T03:10:07;2.40;;;2.20;;
65751;SDS011;52486;51.098;13.770;2023-03-04T03:12:34;2.75;;;2.25;;
65751;SDS011;52486;51.098;13.770;2023-03-04T03:15:00;2.17;;;1.80;;
65751;SDS011;52486;51.098;13.770;2023-03-04T03:17:26;2.47;;;2.20;;
65751;SDS011;52486;51.098;13.770;2023-03-04T03:19:52;2.80;;;2.20;;
65751;SDS011;52486;51.098;13.770;2023-03-04T03:22:18;2.42;;;2.10;;
65751;SDS011;52486;51.098;13.770;2023-03-04T03:24:44;2.38;;;1.80;;
65751;SDS011;52486;51.098;13.770;2023-03-04T03:27:10;1.90;;;1.70;;
65751;SDS011;52486;51.098;13.770;2023-03-04T03:29:36;2.10;;;1.70;;
65751;SDS011;52486;51.098;13.770;2023-03-04T03:32:03;2.85;;;2.15;;
65751;SDS011;52486;51.098;13.770;2023-03-04T03:34:29;2.55;;;2.30;;
65751;SDS011;52486;51.098;13.770;2023-03-04T03:36:55;2.40;;;2.20;;
65751;SDS011;52486;51.098;13.770;2023-03-04T03:39:22;1.60;;;1.50;;
65751;SDS011;52486;51.098;13.770;2023-03-04T03:41:48;3.25;;;2.20;;
65751;SDS011;52486;51.098;13.770;2023-03-04T03:44:14;1.98;;;1.70;;
65751;SDS011;52486;51.098;13.770;2023-03-04T03:46:40;2.20;;;2.00;;
65751;SDS011;52486;51.098;13.770;2023-03-04T03:49:06;2.50;;;1.98;;
65751;SDS011;52486;51.098;13.770;2023-03-04T03:51:33;1.83;;;1.73;;
65751;SDS011;52486;51.098;13.770;2023-03-04T03:53:59;2.33;;;2.13;;
65751;SDS011;52486;51.098;13.770;2023-03-04T03:56:25;3.03;;;2.10;;
65751;SDS011;52486;51.098;13.770;2023-03-04T03:58:51;2.08;;;1.88;;
65751;SDS011;52486;51.098;13.770;2023-03-04T04:01:18;2.75;;;1.70;;
65751;SDS011;52486;51.098;13.770;2023-03-04T04:03:45;1.80;;;1.70;;
65751;SDS011;52486;51.098;13.770;2023-03-04T04:06:11;2.50;;;2.10;;
65751;SDS011;52486;51.098;13.770;2023-03-04T04:08:37;2.15;;;1.80;;
65751;SDS011;52486;51.098;13.770;2023-03-04T04:11:04;2.30;;;2.00;;
65751;SDS011;52486;51.098;13.770;2023-03-04T04:13:30;2.05;;;1.83;;
65751;SDS011;52486;51.098;13.770;2023-03-04T04:15:57;2.17;;;1.80;;
65751;SDS011;52486;51.098;13.770;2023-03-04T04:18:23;2.17;;;1.80;;
65751;SDS011;52486;51.098;13.770;2023-03-04T04:20:50;2.25;;;1.85;;
65751;SDS011;52486;51.098;13.770;2023-03-04T04:23:16;2.10;;;1.90;;
65751;SDS011;52486;51.098;13.770;2023-03-04T04:25:42;2.95;;;1.77;;
65751;SDS011;52486;51.098;13.770;2023-03-04T04:28:08;1.70;;;1.60;;
65751;SDS011;52486;51.098;13.770;2023-03-04T04:30:35;2.08;;;1.77;;
65751;SDS011;52486;51.098;13.770;2023-03-04T04:33:01;2.13;;;1.92;;
65751;SDS011;52486;51.098;13.770;2023-03-04T04:35:29;1.85;;;1.75;;
65751;SDS011;52486;51.098;13.770;2023-03-04T04:37:55;2.08;;;1.88;;
65751;SDS011;52486;51.098;13.770;2023-03-04T04:40:21;2.17;;;1.92;;
65751;SDS011;52486;51.098;13.770;2023-03-04T04:42:48;2.00;;;1.70;;
65751;SDS011;52486;51.098;13.770;2023-03-04T04:45:14;2.22;;;1.83;;
65751;SDS011;52486;51.098;13.770;2023-03-04T04:47:40;2.10;;;1.83;;
65751;SDS011;52486;51.098;13.770;2023-03-04T04:50:07;2.28;;;2.08;;
65751;SDS011;52486;51.098;13.770;2023-03-04T04:52:33;1.90;;;1.80;;
65751;SDS011;52486;51.098;13.770;2023-03-04T04:55:00;1.80;;;1.70;;
65751;SDS011;52486;51.098;13.770;2023-03-04T04:57:26;1.88;;;1.63;;
65751;SDS011;52486;51.098;13.770;2023-03-04T04:59:52;1.80;;;1.70;;
65751;SDS011;52486;51.098;13.770;2023-03-04T05:02:18;1.95;;;1.73;;
65751;SDS011;52486;51.098;13.770;2023-03-04T05:04:44;1.90;;;1.77;;
65751;SDS011;52486;51.098;13.770;2023-03-04T05:07:11;2.08;;;1.83;;
65751;SDS011;52486;51.098;13.770;2023-03-04T05:09:37;2.58;;;1.75;;
65751;SDS011;52486;51.098;13.770;2023-03-04T05:12:03;1.65;;;1.55;;
65751;SDS011;52486;51.098;13.770;2023-03-04T05:14:29;2.28;;;1.92;;
65751;SDS011;52486;51.098;13.770;2023-03-04T05:16:55;2.10;;;1.73;;
65751;SDS011;52486;51.098;13.770;2023-03-04T05:19:22;2.15;;;1.80;;
65751;SDS011;52486;51.098;13.770;2023-03-04T05:21:48;1.65;;;1.55;;
65751;SDS011;52486;51.098;13.770;2023-03-04T05:24:14;1.70;;;1.60;;
65751;SDS011;52486;51.098;13.770;2023-03-04T05:26:40;2.60;;;1.70;;
65751;SDS011;52486;51.098;13.770;2023-03-04T05:29:07;2.05;;;1.85;;
65751;SDS011;52486;51.098;13.770;2023-03-04T05:31:33;1.80;;;1.60;;
65751;SDS011;52486;51.098;13.770;2023-03-04T05:33:59;2.15;;;1.80;;
65751;SDS011;52486;51.098;13.770;2023-03-04T05:36:25;1.67;;;1.58;;
65751;SDS011;52486;51.098;13.770;2023-03-04T05:38:51;1.55;;;1.45;;
65751;SDS011;52486;51.098;13.770;2023-03-04T05:41:17;1.70;;;1.60;;
65751;SDS011;52486;51.098;13.770;2023-03-04T05:43:46;1.92;;;1.38;;
65751;SDS011;52486;51.098;13.770;2023-03-04T05:46:13;1.67;;;1.58;;
65751;SDS011;52486;51.098;13.770;2023-03-04T05:48:39;1.83;;;1.73;;
65751;SDS011;52486;51.098;13.770;2023-03-04T05:51:06;1.75;;;1.60;;
65751;SDS011;52486;51.098;13.770;2023-03-04T05:53:32;2.75;;;1.50;;
65751;SDS011;52486;51.098;13.770;2023-03-04T05:56:05;2.25;;;1.80;;
65751;SDS011;52486;51.098;13.770;2023-03-04T05:58:31;2.13;;;1.80;;
65751;SDS011;52486;51.098;13.770;2023-03-04T06:01:00;1.90;;;1.80;;
65751;SDS011;52486;51.098;13.770;2023-03-04T06:03:27;1.80;;;1.70;;
65751;SDS011;52486;51.098;13.770;2023-03-04T06:05:53;2.00;;;1.80;;
65751;SDS011;52486;51.098;13.770;2023-03-04T06:08:19;1.70;;;1.60;;
65751;SDS011;52486;51.098;13.770;2023-03-04T06:10:45;1.83;;;1.60;;
65751;SDS011;52486;51.098;13.770;2023-03-04T06:13:12;2.40;;;1.95;;
65751;SDS011;52486;51.098;13.770;2023-03-04T06:15:38;1.90;;;1.75;;
65751;SDS011;52486;51.098;13.770;2023-03-04T06:18:05;1.65;;;1.52;;
65751;SDS011;52486;51.098;13.770;2023-03-04T06:20:32;1.45;;;1.35;;
65751;SDS011;52486;51.098;13.770;2023-03-04T06:22:58;1.55;;;1.45;;
65751;SDS011;52486;51.098;13.770;2023-03-04T06:25:24;1.70;;;1.60;;
65751;SDS011;52486;51.098;13.770;2023-03-04T06:27:50;2.25;;;1.67;;
65751;SDS011;52486;51.098;13.770;2023-03-04T06:30:17;1.83;;;1.50;;
65751;SDS011;52486;51.098;13.770;2023-03-04T06:32:43;2.55;;;1.70;;
65751;SDS011;52486;51.098;13.770;2023-03-04T06:35:11;1.92;;;1.70;;
65751;SDS011;52486;51.098;13.770;2023-03-04T06:37:37;1.70;;;1.60;;
65751;SDS011;52486;51.098;13.770;2023-03-04T06:40:03;1.98;;;1.70;;
65751;SDS011;52486;51.098;13.770;2023-03-04T06:42:30;1.75;;;1.58;;
65751;SDS011;52486;51.098;13.770;2023-03-04T06:44:57;1.50;;;1.40;;
65751;SDS011;52486;51.098;13.770;2023-03-04T06:47:23;1.60;;;1.50;;
65751;SDS011;52486;51.098;13.770;2023-03-04T06:49:49;1.80;;;1.60;;
65751;SDS011;52486;51.098;13.770;2023-03-04T06:52:15;1.92;;;1.77;;
65751;SDS011;52486;51.098;13.770;2023-03-04T06:54:41;1.70;;;1.50;;
65751;SDS011;52486;51.098;13.770;2023-03-04T06:57:07;1.60;;;1.50;;
65751;SDS011;52486;51.098;13.770;2023-03-04T06:59:33;2.35;;;1.73;;
65751;SDS011;52486;51.098;13.770;2023-03-04T07:01:59;1.65;;;1.55;;
65751;SDS011;52486;51.098;13.770;2023-03-04T07:04:26;2.17;;;1.60;;
65751;SDS011;52486;51.098;13.770;2023-03-04T07:06:52;1.98;;;1.60;;
65751;SDS011;52486;51.098;13.770;2023-03-04T07:09:18;1.88;;;1.48;;
65751;SDS011;52486;51.098;13.770;2023-03-04T07:11:44;1.90;;;1.70;;
65751;SDS011;52486;51.098;13.770;2023-03-04T07:14:10;1.60;;;1.40;;
65751;SDS011;52486;51.098;13.770;2023-03-04T07:16:36;1.73;;;1.52;;
65751;SDS011;52486;51.098;13.770;2023-03-04T07:19:02;1.85;;;1.50;;
65751;SDS011;52486;51.098;13.770;2023-03-04T07:21:28;2.25;;;1.55;;
65751;SDS011;52486;51.098;13.770;2023-03-04T07:23:54;2.00;;;1.55;;
65751;SDS011;52486;51.098;13.770;2023-03-04T07:26:21;1.70;;;1.60;;
65751;SDS011;52486;51.098;13.770;2023-03-04T07:28:47;1.60;;;1.40;;
65751;SDS011;52486;51.098;13.770;2023-03-04T07:31:24;1.67;;;1.35;;
65751;SDS011;52486;51.098;13.770;2023-03-04T07:33:54;2.35;;;1.83;;
65751;SDS011;52486;51.098;13.770;2023-03-04T07:36:20;1.50;;;1.27;;
65751;SDS011;52486;51.098;13.770;2023-03-04T07:38:47;1.35;;;1.25;;
65751;SDS011;52486;51.098;13.770;2023-03-04T07:41:14;1.95;;;1.30;;
65751;SDS011;52486;51.098;13.770;2023-03-04T07:43:40;1.70;;;1.58;;
65751;SDS011;52486;51.098;13.770;2023-03-04T07:46:06;1.60;;;1.50;;
65751;SDS011;52486;51.098;13.770;2023-03-04T07:48:32;1.63;;;1.30;;
65751;SDS011;52486;51.098;13.770;2023-03-04T07:51:02;1.70;;;1.60;;
65751;SDS011;52486;51.098;13.770;2023-03-04T07:53:29;1.42;;;1.33;;
65751;SDS011;52486;51.098;13.770;2023-03-04T07:55:55;2.22;;;1.60;;
65751;SDS011;52486;51.098;13.770;2023-03-04T07:58:21;1.42;;;1.33;;
65751;SDS011;52486;51.098;13.770;2023-03-04T08:00:47;1.90;;;1.38;;
65751;SDS011;52486;51.098;13.770;2023-03-04T08:03:13;1.55;;;1.33;;
65751;SDS011;52486;51.098;13.770;2023-03-04T08:05:39;1.40;;;1.23;;
65751;SDS011;52486;51.098;13.770;2023-03-04T08:08:05;1.70;;;1.60;;
65751;SDS011;52486;51.098;13.770;2023-03-04T08:10:31;2.13;;;1.42;;
65751;SDS011;52486;51.098;13.770;2023-03-04T08:12:58;2.17;;;1.40;;
65751;SDS011;52486;51.098;13.770;2023-03-04T08:15:24;1.60;;;1.50;;
65751;SDS011;52486;51.098;13.770;2023-03-04T08:17:51;1.65;;;1.42;;
65751;SDS011;52486;51.098;13.770;2023-03-04T08:20:17;1.42;;;1.33;;
65751;SDS011;52486;51.098;13.770;2023-03-04T08:22:43;1.58;;;1.30;;
65751;SDS011;52486;51.098;13.770;2023-03-04T08:25:10;1.63;;;1.40;;
65751;SDS011;52486;51.098;13.770;2023-03-04T08:27:36;1.90;;;1.40;;
65751;SDS011;52486;51.098;13.770;2023-03-04T08:30:05;2.38;;;1.50;;
65751;SDS011;52486;51.098;13.770;2023-03-04T08:32:31;1.40;;;1.17;;
65751;SDS011;52486;51.098;13.770;2023-03-04T08:34:58;1.45;;;1.25;;
65751;SDS011;52486;51.098;13.770;2023-03-04T08:37:26;1.45;;;1.23;;
65751;SDS011;52486;51.098;13.770;2023-03-04T08:39:52;1.40;;;1.30;;
65751;SDS011;52486;51.098;13.770;2023-03-04T08:42:18;2.05;;;1.48;;
65751;SDS011;52486;51.098;13.770;2023-03-04T08:44:44;1.40;;;1.30;;
65751;SDS011;52486;51.098;13.770;2023-03-04T08:47:11;1.40;;;1.30;;
65751;SDS011;52486;51.098;13.770;2023-03-04T08:49:37;1.80;;;1.42;;
65751;SDS011;52486;51.098;13.770;2023-03-04T08:52:03;1.70;;;1.48;;
65751;SDS011;52486;51.098;13.770;2023-03-04T08:54:29;1.73;;;1.38;;
65751;SDS011;52486;51.098;13.770;2023-03-04T08:56:55;1.45;;;1.33;;
65751;SDS011;52486;51.098;13.770;2023-03-04T08:59:21;1.35;;;1.25;;
65751;SDS011;52486;51.098;13.770;2023-03-04T09:01:48;1.65;;;1.30;;
65751;SDS011;52486;51.098;13.770;2023-03-04T09:04:14;1.95;;;1.20;;
65751;SDS011;52486;51.098;13.770;2023-03-04T09:06:40;1.70;;;1.35;;
65751;SDS011;52486;51.098;13.770;2023-03-04T09:09:06;2.10;;;1.30;;
65751;SDS011;52486;51.098;13.770;2023-03-04T09:11:32;1.42;;;1.33;;
65751;SDS011;52486;51.098;13.770;2023-03-04T09:13:58;1.80;;;1.20;;
65751;SDS011;52486;51.098;13.770;2023-03-04T09:16:25;1.42;;;1.33;;
65751;SDS011;52486;51.098;13.770;2023-03-04T09:18:51;1.30;;;1.17;;
65751;SDS011;52486;51.098;13.770;2023-03-04T09:21:17;1.73;;;1.38;;
65751;SDS011;52486;51.098;13.770;2023-03-04T09:23:43;1.83;;;1.40;;
65751;SDS011;52486;51.098;13.770;2023-03-04T09:26:25;1.63;;;1.38;;
65751;SDS011;52486;51.098;13.770;2023-03-04T09:28:52;1.52;;;1.42;;
65751;SDS011;52486;51.098;13.770;2023-03-04T09:31:18;1.88;;;1.40;;
65751;SDS011;52486;51.098;13.770;2023-03-04T09:33:45;1.70;;;1.40;;
65751;SDS011;52486;51.098;13.770;2023-03-04T09:36:12;2.55;;;1.40;;
65751;SDS011;52486;51.098;13.770;2023-03-04T09:38:38;1.52;;;1.30;;
65751;SDS011;52486;51.098;13.770;2023-03-04T09:41:09;1.58;;;1.23;;
65751;SDS011;52486;51.098;13.770;2023-03-04T09:43:36;1.30;;;1.20;;
65751;SDS011;52486;51.098;13.770;2023-03-04T09:46:04;2.22;;;1.40;;
65751;SDS011;52486;51.098;13.770;2023-03-04T09:48:35;1.58;;;1.25;;
65751;SDS011;52486;51.098;13.770;2023-03-04T09:51:06;1.67;;;1.33;;
65751;SDS011;52486;51.098;13.770;2023-03-04T09:53:46;1.48;;;1.33;;
65751;SDS011;52486;51.098;13.770;2023-03-04T09:56:14;1.83;;;1.20;;
65751;SDS011;52486;51.098;13.770;2023-03-04T10:01:20;2.00;;;1.38;;
65751;SDS011;52486;51.098;13.770;2023-03-04T10:03:51;1.92;;;1.23;;
65751;SDS011;52486;51.098;13.770;2023-03-04T10:06:22;2.50;;;1.33;;
65751;SDS011;52486;51.098;13.770;2023-03-04T10:08:58;1.90;;;1.45;;
65751;SDS011;52486;51.098;13.770;2023-03-04T10:11:26;1.70;;;1.23;;
65751;SDS011;52486;51.098;13.770;2023-03-04T10:14:03;1.42;;;1.25;;
65751;SDS011;52486;51.098;13.770;2023-03-04T10:16:40;1.40;;;1.30;;
65751;SDS011;52486;51.098;13.770;2023-03-04T10:21:38;2.33;;;1.27;;
65751;SDS011;52486;51.098;13.770;2023-03-04T10:24:12;1.30;;;1.20;;
65751;SDS011;52486;51.098;13.770;2023-03-04T10:26:42;1.33;;;1.17;;
65751;SDS011;52486;51.098;13.770;2023-03-04T10:29:12;2.58;;;1.50;;
65751;SDS011;52486;51.098;13.770;2023-03-04T10:31:40;1.17;;;1.08;;
65751;SDS011;52486;51.098;13.770;2023-03-04T10:34:09;1.20;;;1.10;;
65751;SDS011;52486;51.098;13.770;2023-03-04T10:36:38;1.25;;;1.10;;
65751;SDS011;52486;51.098;13.770;2023-03-04T10:39:08;1.20;;;1.10;;
65751;SDS011;52486;51.098;13.770;2023-03-04T10:41:36;1.98;;;1.17;;
65751;SDS011;52486;51.098;13.770;2023-03-04T10:46:40;1.33;;;1.23;;
65751;SDS011;52486;51.098;13.770;2023-03-04T10:49:08;1.10;;;1.00;;
65751;SDS011;52486;51.098;13.770;2023-03-04T10:51:45;1.95;;;1.52;;
65751;SDS011;52486;51.098;13.770;2023-03-04T11:02:05;1.42;;;1.20;;
65751;SDS011;52486;51.098;13.770;2023-03-04T11:04:35;1.65;;;1.33;;
65751;SDS011;52486;51.098;13.770;2023-03-04T11:07:05;1.20;;;1.10;;
65751;SDS011;52486;51.098;13.770;2023-03-04T11:09:32;1.95;;;1.35;;
65751;SDS011;52486;51.098;13.770;2023-03-04T11:11:59;1.13;;;1.00;;
65751;SDS011;52486;51.098;13.770;2023-03-04T11:16:54;1.75;;;1.40;;
65751;SDS011;52486;51.098;13.770;2023-03-04T11:19:21;1.30;;;1.20;;
65751;SDS011;52486;51.098;13.770;2023-03-04T11:21:48;1.30;;;1.08;;
65751;SDS011;52486;51.098;13.770;2023-03-04T11:24:20;1.20;;;1.10;;
65751;SDS011;52486;51.098;13.770;2023-03-04T11:27:01;1.73;;;1.20;;
65751;SDS011;52486;51.098;13.770;2023-03-04T11:31:59;2.25;;;1.30;;
65751;SDS011;52486;51.098;13.770;2023-03-04T11:39:36;1.33;;;1.05;;
65751;SDS011;52486;51.098;13.770;2023-03-04T11:44:32;1.20;;;1.10;;
65751;SDS011;52486;51.098;13.770;2023-03-04T12:05:36;1.48;;;0.98;;
65751;SDS011;52486;51.098;13.770;2023-03-04T12:11:00;1.48;;;1.13;;
65751;SDS011;52486;51.098;13.770;2023-03-04T12:32:13;2.05;;;1.27;;
65751;SDS011;52486;51.098;13.770;2023-03-04T12:34:45;1.10;;;1.08;;
65751;SDS011;52486;51.098;13.770;2023-03-04T12:52:47;0.93;;;0.90;;
65751;SDS011;52486;51.098;13.770;2023-03-04T12:55:19;1.00;;;0.90;;
65751;SDS011;52486;51.098;13.770;2023-03-04T12:57:49;1.20;;;1.08;;
65751;SDS011;52486;51.098;13.770;2023-03-04T13:02:46;2.00;;;1.20;;
65751;SDS011;52486;51.098;13.770;2023-03-04T13:08:07;1.55;;;0.90;;
65751;SDS011;52486;51.098;13.770;2023-03-04T13:10:28;1.55;;;1.00;;
65751;SDS011;52486;51.098;13.770;2023-03-04T13:12:58;1.40;;;0.80;;
65751;SDS011;52486;51.098;13.770;2023-03-04T13:17:51;2.40;;;1.00;;
65751;SDS011;52486;51.098;13.770;2023-03-04T13:20:32;1.60;;;1.08;;
65751;SDS011;52486;51.098;13.770;2023-03-04T13:25:36;1.80;;;1.00;;
65751;SDS011;52486;51.098;13.770;2023-03-04T13:30:38;2.05;;;1.00;;
65751;SDS011;52486;51.098;13.770;2023-03-04T13:43:41;1.05;;;0.90;;
65751;SDS011;52486;51.098;13.770;2023-03-04T13:56:40;0.93;;;0.85;;
65751;SDS011;52486;51.098;13.770;2023-03-04T14:01:47;1.40;;;1.10;;
65751;SDS011;52486;51.098;13.770;2023-03-04T14:04:18;1.90;;;1.20;;
65751;SDS011;52486;51.098;13.770;2023-03-04T14:06:45;1.52;;;1.00;;
65751;SDS011;52486;51.098;13.770;2023-03-04T14:09:17;1.25;;;0.80;;
65751;SDS011;52486;51.098;13.770;2023-03-04T14:11:47;1.15;;;1.05;;
65751;SDS011;52486;51.098;13.770;2023-03-04T14:14:24;0.75;;;0.63;;
65751;SDS011;52486;51.098;13.770;2023-03-04T14:16:55;1.27;;;0.90;;
65751;SDS011;52486;51.098;13.770;2023-03-04T14:19:29;0.95;;;0.95;;
65751;SDS011;52486;51.098;13.770;2023-03-04T14:21:56;1.17;;;1.00;;
65751;SDS011;52486;51.098;13.770;2023-03-04T14:24:23;1.95;;;0.98;;
65751;SDS011;52486;51.098;13.770;2023-03-04T14:26:49;1.17;;;1.05;;
65751;SDS011;52486;51.098;13.770;2023-03-04T14:29:28;1.63;;;1.10;;
65751;SDS011;52486;51.098;13.770;2023-03-04T14:31:55;1.05;;;0.90;;
65751;SDS011;52486;51.098;13.770;2023-03-04T14:34:27;1.00;;;0.77;;
65751;SDS011;52486;51.098;13.770;2023-03-04T14:36:56;1.02;;;0.80;;
65751;SDS011;52486;51.098;13.770;2023-03-04T14:39:23;1.05;;;0.95;;
65751;SDS011;52486;51.098;13.770;2023-03-04T14:41:50;1.30;;;1.20;;
65751;SDS011;52486;51.098;13.770;2023-03-04T14:47:01;1.55;;;1.00;;
65751;SDS011;52486;51.098;13.770;2023-03-04T14:49:33;1.10;;;0.88;;
65751;SDS011;52486;51.098;13.770;2023-03-04T14:52:00;1.10;;;0.82;;
65751;SDS011;52486;51.098;13.770;2023-03-04T14:56:59;1.00;;;0.90;;
65751;SDS011;52486;51.098;13.770;2023-03-04T14:59:32;1.02;;;0.88;;
65751;SDS011;52486;51.098;13.770;2023-03-04T15:04:44;0.95;;;0.90;;
65751;SDS011;52486;51.098;13.770;2023-03-04T15:07:19;1.17;;;1.08;;
65751;SDS011;52486;51.098;13.770;2023-03-04T15:09:49;0.90;;;0.90;;
65751;SDS011;52486;51.098;13.770;2023-03-04T15:12:21;0.88;;;0.68;;
65751;SDS011;52486;51.098;13.770;2023-03-04T15:14:48;1.00;;;0.90;;
65751;SDS011;52486;51.098;13.770;2023-03-04T15:17:35;1.05;;;0.80;;
65751;SDS011;52486;51.098;13.770;2023-03-04T15:22:34;1.05;;;0.90;;
65751;SDS011;52486;51.098;13.770;2023-03-04T15:25:01;1.08;;;1.00;;
65751;SDS011;52486;51.098;13.770;2023-03-04T15:27:28;0.93;;;0.70;;
65751;SDS011;52486;51.098;13.770;2023-03-04T15:29:55;1.00;;;0.90;;
65751;SDS011;52486;51.098;13.770;2023-03-04T15:32:26;1.08;;;0.70;;
65751;SDS011;52486;51.098;13.770;2023-03-04T15:34:52;0.73;;;0.73;;
65751;SDS011;52486;51.098;13.770;2023-03-04T15:37:25;1.00;;;0.90;;
65751;SDS011;52486;51.098;13.770;2023-03-04T15:39:52;1.10;;;1.00;;
65751;SDS011;52486;51.098;13.770;2023-03-04T15:42:20;1.05;;;0.90;;
65751;SDS011;52486;51.098;13.770;2023-03-04T15:44:46;1.20;;;1.02;;
65751;SDS011;52486;51.098;13.770;2023-03-04T15:47:12;1.75;;;0.90;;
65751;SDS011;52486;51.098;13.770;2023-03-04T15:49:39;0.80;;;0.80;;
65751;SDS011;52486;51.098;13.770;2023-03-04T15:52:06;1.10;;;1.00;;
65751;SDS011;52486;51.098;13.770;2023-03-04T15:54:32;0.80;;;0.80;;
65751;SDS011;52486;51.098;13.770;2023-03-04T15:56:59;1.30;;;1.00;;
65751;SDS011;52486;51.098;13.770;2023-03-04T15:59:25;0.90;;;0.90;;
65751;SDS011;52486;51.098;13.770;2023-03-04T16:01:51;1.02;;;0.95;;
65751;SDS011;52486;51.098;13.770;2023-03-04T16:04:17;1.00;;;0.90;;
65751;SDS011;52486;51.098;13.770;2023-03-04T16:06:44;0.80;;;0.80;;
65751;SDS011;52486;51.098;13.770;2023-03-04T16:09:11;1.27;;;1.00;;
65751;SDS011;52486;51.098;13.770;2023-03-04T16:11:41;0.98;;;0.88;;
65751;SDS011;52486;51.098;13.770;2023-03-04T16:14:12;0.70;;;0.70;;
65751;SDS011;52486;51.098;13.770;2023-03-04T16:16:39;0.63;;;0.63;;
65751;SDS011;52486;51.098;13.770;2023-03-04T16:19:05;0.90;;;0.82;;
65751;SDS011;52486;51.098;13.770;2023-03-04T16:21:31;0.80;;;0.80;;
65751;SDS011;52486;51.098;13.770;2023-03-04T16:23:58;1.20;;;1.02;;
65751;SDS011;52486;51.098;13.770;2023-03-04T16:26:25;0.85;;;0.70;;
65751;SDS011;52486;51.098;13.770;2023-03-04T16:28:52;1.25;;;0.80;;
65751;SDS011;52486;51.098;13.770;2023-03-04T16:31:19;0.90;;;0.85;;
65751;SDS011;52486;51.098;13.770;2023-03-04T16:33:45;0.80;;;0.70;;
65751;SDS011;52486;51.098;13.770;2023-03-04T16:36:15;1.20;;;1.08;;
65751;SDS011;52486;51.098;13.770;2023-03-04T16:38:43;0.80;;;0.80;;
65751;SDS011;52486;51.098;13.770;2023-03-04T16:41:12;0.98;;;0.80;;
65751;SDS011;52486;51.098;13.770;2023-03-04T16:43:39;1.02;;;0.80;;
65751;SDS011;52486;51.098;13.770;2023-03-04T16:46:06;1.15;;;0.98;;
65751;SDS011;52486;51.098;13.770;2023-03-04T16:48:32;1.13;;;1.00;;